sensor_id;sensor_type;location;lat;lon;timestamp;temperature;humidity
19930;DHT22;10127;47.780;9.606;2022-07-09T00:01:57;16.20;99.40
19930;DHT22;10127;47.780;9.606;2022-07-09T00:04:23;16.10;99.50
19930;DHT22;10127;47.780;9.606;2022-07-09T00:06:48;16.10;99.70
19930;DHT22;10127;47.780;9.606;2022-07-09T00:09:14;16.00;99.80
19930;DHT22;10127;47.780;9.606;2022-07-09T00:11:39;16.00;99.80
19930;DHT22;10127;47.780;9.606;2022-07-09T00:14:05;15.90;99.90
19930;DHT22;10127;47.780;9.606;2022-07-09T00:16:31;15.80;99.90
19930;DHT22;10127;47.780;9.606;2022-07-09T00:18:56;15.80;99.90
19930;DHT22;10127;47.780;9.606;2022-07-09T00:21:22;15.80;99.90
19930;DHT22;10127;47.780;9.606;2022-07-09T00:23:47;15.70;99.90
19930;DHT22;10127;47.780;9.606;2022-07-09T00:26:13;15.70;99.90
19930;DHT22;10127;47.780;9.606;2022-07-09T00:28:38;15.60;99.90
19930;DHT22;10127;47.780;9.606;2022-07-09T00:31:04;15.50;99.90
19930;DHT22;10127;47.780;9.606;2022-07-09T00:33:30;15.60;99.90
19930;DHT22;10127;47.780;9.606;2022-07-09T00:35:55;15.60;99.90
19930;DHT22;10127;47.780;9.606;2022-07-09T00:38:21;15.50;99.90
19930;DHT22;10127;47.780;9.606;2022-07-09T00:40:47;15.40;99.90
19930;DHT22;10127;47.780;9.606;2022-07-09T00:43:17;15.40;99.90
19930;DHT22;10127;47.780;9.606;2022-07-09T00:45:43;15.40;99.90
19930;DHT22;10127;47.780;9.606;2022-07-09T00:48:09;15.40;99.90
19930;DHT22;10127;47.780;9.606;2022-07-09T00:50:35;15.40;99.90
19930;DHT22;10127;47.780;9.606;2022-07-09T00:53:01;15.40;99.90
19930;DHT22;10127;47.780;9.606;2022-07-09T00:55:26;15.30;99.90
19930;DHT22;10127;47.780;9.606;2022-07-09T00:57:52;15.30;99.90
19930;DHT22;10127;47.780;9.606;2022-07-09T01:00:18;15.20;99.90
19930;DHT22;10127;47.780;9.606;2022-07-09T01:02:44;15.10;99.90
19930;DHT22;10127;47.780;9.606;2022-07-09T01:25:43;14.50;99.90
19930;DHT22;10127;47.780;9.606;2022-07-09T01:28:09;14.50;99.90
19930;DHT22;10127;47.780;9.606;2022-07-09T01:30:37;14.40;99.90
19930;DHT22;10127;47.780;9.606;2022-07-09T01:33:03;14.50;99.90
19930;DHT22;10127;47.780;9.606;2022-07-09T01:35:30;14.40;99.90
19930;DHT22;10127;47.780;9.606;2022-07-09T01:37:56;14.40;99.90
19930;DHT22;10127;47.780;9.606;2022-07-09T01:40:23;14.40;99.90
19930;DHT22;10127;47.780;9.606;2022-07-09T01:42:49;14.50;99.90
19930;DHT22;10127;47.780;9.606;2022-07-09T01:45:16;14.50;99.90
19930;DHT22;10127;47.780;9.606;2022-07-09T01:47:42;14.60;99.90
19930;DHT22;10127;47.780;9.606;2022-07-09T01:50:08;14.60;99.90
19930;DHT22;10127;47.780;9.606;2022-07-09T01:52:34;14.50;99.90
19930;DHT22;10127;47.780;9.606;2022-07-09T01:54:59;14.60;99.90
19930;DHT22;10127;47.780;9.606;2022-07-09T01:57:25;14.60;99.90
19930;DHT22;10127;47.780;9.606;2022-07-09T01:59:51;14.60;99.90
19930;DHT22;10127;47.780;9.606;2022-07-09T02:02:17;14.60;99.90
19930;DHT22;10127;47.780;9.606;2022-07-09T02:04:42;14.60;99.90
19930;DHT22;10127;47.780;9.606;2022-07-09T02:07:08;14.60;99.90
19930;DHT22;10127;47.780;9.606;2022-07-09T02:09:33;14.60;99.90
19930;DHT22;10127;47.780;9.606;2022-07-09T02:11:59;14.60;99.90
19930;DHT22;10127;47.780;9.606;2022-07-09T02:14:25;14.70;99.90
19930;DHT22;10127;47.780;9.606;2022-07-09T02:16:50;14.70;99.90
19930;DHT22;10127;47.780;9.606;2022-07-09T02:19:16;14.70;99.90
19930;DHT22;10127;47.780;9.606;2022-07-09T02:21:41;14.70;99.90
19930;DHT22;10127;47.780;9.606;2022-07-09T02:24:07;14.60;99.90
19930;DHT22;10127;47.780;9.606;2022-07-09T02:26:33;14.50;99.90
19930;DHT22;10127;47.780;9.606;2022-07-09T02:28:59;14.40;99.90
19930;DHT22;10127;47.780;9.606;2022-07-09T02:31:26;14.40;99.90
19930;DHT22;10127;47.780;9.606;2022-07-09T02:33:52;14.30;99.90
19930;DHT22;10127;47.780;9.606;2022-07-09T02:36:18;14.30;99.90
19930;DHT22;10127;47.780;9.606;2022-07-09T02:38:44;14.40;99.90
19930;DHT22;10127;47.780;9.606;2022-07-09T02:41:09;14.40;99.90
19930;DHT22;10127;47.780;9.606;2022-07-09T02:43:35;14.40;99.90
19930;DHT22;10127;47.780;9.606;2022-07-09T02:46:00;14.40;99.90
19930;DHT22;10127;47.780;9.606;2022-07-09T02:48:26;14.50;99.90
19930;DHT22;10127;47.780;9.606;2022-07-09T02:50:52;14.60;99.90
19930;DHT22;10127;47.780;9.606;2022-07-09T02:53:19;14.40;99.90
19930;DHT22;10127;47.780;9.606;2022-07-09T02:55:45;14.30;99.90
19930;DHT22;10127;47.780;9.606;2022-07-09T02:58:10;14.20;99.90
19930;DHT22;10127;47.780;9.606;2022-07-09T03:00:37;14.10;99.90
19930;DHT22;10127;47.780;9.606;2022-07-09T03:03:05;14.00;99.90
19930;DHT22;10127;47.780;9.606;2022-07-09T03:05:30;14.00;99.90
19930;DHT22;10127;47.780;9.606;2022-07-09T03:07:56;14.00;99.90
19930;DHT22;10127;47.780;9.606;2022-07-09T03:10:21;14.00;99.90
19930;DHT22;10127;47.780;9.606;2022-07-09T03:12:47;14.00;99.90
19930;DHT22;10127;47.780;9.606;2022-07-09T03:15:13;13.90;99.90
19930;DHT22;10127;47.780;9.606;2022-07-09T03:17:40;13.90;99.90
19930;DHT22;10127;47.780;9.606;2022-07-09T03:20:06;13.90;99.90
19930;DHT22;10127;47.780;9.606;2022-07-09T03:22:32;13.80;99.90
19930;DHT22;10127;47.780;9.606;2022-07-09T03:24:57;13.70;99.90
19930;DHT22;10127;47.780;9.606;2022-07-09T03:27:23;13.70;99.90
19930;DHT22;10127;47.780;9.606;2022-07-09T03:29:49;13.70;99.90
19930;DHT22;10127;47.780;9.606;2022-07-09T03:32:14;13.60;99.90
19930;DHT22;10127;47.780;9.606;2022-07-09T03:34:40;13.70;99.90
19930;DHT22;10127;47.780;9.606;2022-07-09T03:37:06;13.70;99.90
19930;DHT22;10127;47.780;9.606;2022-07-09T03:39:31;13.70;99.90
19930;DHT22;10127;47.780;9.606;2022-07-09T03:41:57;13.70;99.90
19930;DHT22;10127;47.780;9.606;2022-07-09T03:44:22;13.60;99.90
19930;DHT22;10127;47.780;9.606;2022-07-09T03:46:48;13.60;99.90
19930;DHT22;10127;47.780;9.606;2022-07-09T03:49:14;13.60;99.90
19930;DHT22;10127;47.780;9.606;2022-07-09T03:51:39;13.60;99.90
19930;DHT22;10127;47.780;9.606;2022-07-09T03:54:05;13.50;99.90
19930;DHT22;10127;47.780;9.606;2022-07-09T03:56:30;13.40;99.90
19930;DHT22;10127;47.780;9.606;2022-07-09T03:58:56;13.40;99.90
19930;DHT22;10127;47.780;9.606;2022-07-09T04:01:21;13.50;99.90
19930;DHT22;10127;47.780;9.606;2022-07-09T04:03:47;13.50;99.90
19930;DHT22;10127;47.780;9.606;2022-07-09T04:06:12;13.50;99.90
19930;DHT22;10127;47.780;9.606;2022-07-09T04:08:38;13.60;99.90
19930;DHT22;10127;47.780;9.606;2022-07-09T04:11:04;13.50;99.90
19930;DHT22;10127;47.780;9.606;2022-07-09T04:13:29;13.50;99.90
19930;DHT22;10127;47.780;9.606;2022-07-09T04:15:55;13.50;99.90
19930;DHT22;10127;47.780;9.606;2022-07-09T04:18:21;13.50;99.90
19930;DHT22;10127;47.780;9.606;2022-07-09T04:20:46;13.50;99.90
19930;DHT22;10127;47.780;9.606;2022-07-09T04:23:12;13.60;99.90
19930;DHT22;10127;47.780;9.606;2022-07-09T04:25:37;13.70;99.90
19930;DHT22;10127;47.780;9.606;2022-07-09T04:28:03;13.70;99.90
19930;DHT22;10127;47.780;9.606;2022-07-09T04:30:30;13.80;99.90
19930;DHT22;10127;47.780;9.606;2022-07-09T04:32:56;13.90;99.90
19930;DHT22;10127;47.780;9.606;2022-07-09T04:35:22;14.00;99.90
19930;DHT22;10127;47.780;9.606;2022-07-09T04:37:47;14.20;99.90
19930;DHT22;10127;47.780;9.606;2022-07-09T04:40:13;14.90;99.90
19930;DHT22;10127;47.780;9.606;2022-07-09T04:42:38;16.70;99.90
19930;DHT22;10127;47.780;9.606;2022-07-09T04:45:04;16.60;99.60
19930;DHT22;10127;47.780;9.606;2022-07-09T04:47:30;15.80;99.90
19930;DHT22;10127;47.780;9.606;2022-07-09T04:49:55;15.00;99.90
19930;DHT22;10127;47.780;9.606;2022-07-09T04:52:21;14.50;99.90
19930;DHT22;10127;47.780;9.606;2022-07-09T04:54:47;14.20;99.90
19930;DHT22;10127;47.780;9.606;2022-07-09T04:57:13;14.30;99.90
19930;DHT22;10127;47.780;9.606;2022-07-09T04:59:38;14.40;99.90
19930;DHT22;10127;47.780;9.606;2022-07-09T05:02:04;14.40;99.90
19930;DHT22;10127;47.780;9.606;2022-07-09T05:04:30;14.60;99.90
19930;DHT22;10127;47.780;9.606;2022-07-09T05:06:56;14.90;99.90
19930;DHT22;10127;47.780;9.606;2022-07-09T05:09:21;15.20;99.90
19930;DHT22;10127;47.780;9.606;2022-07-09T05:11:47;15.10;99.90
19930;DHT22;10127;47.780;9.606;2022-07-09T05:14:13;15.00;99.90
19930;DHT22;10127;47.780;9.606;2022-07-09T05:16:39;14.90;99.90
19930;DHT22;10127;47.780;9.606;2022-07-09T05:19:10;14.70;99.90
19930;DHT22;10127;47.780;9.606;2022-07-09T05:21:36;14.50;99.90
19930;DHT22;10127;47.780;9.606;2022-07-09T05:24:02;14.60;99.90
19930;DHT22;10127;47.780;9.606;2022-07-09T05:26:28;14.60;99.90
19930;DHT22;10127;47.780;9.606;2022-07-09T05:28:55;14.80;99.90
19930;DHT22;10127;47.780;9.606;2022-07-09T05:31:20;15.00;99.90
19930;DHT22;10127;47.780;9.606;2022-07-09T05:33:46;15.20;99.90
19930;DHT22;10127;47.780;9.606;2022-07-09T05:36:12;15.30;99.90
19930;DHT22;10127;47.780;9.606;2022-07-09T05:38:38;15.30;99.90
19930;DHT22;10127;47.780;9.606;2022-07-09T05:41:04;15.40;99.90
19930;DHT22;10127;47.780;9.606;2022-07-09T05:43:29;15.60;99.90
19930;DHT22;10127;47.780;9.606;2022-07-09T05:45:55;15.70;99.90
19930;DHT22;10127;47.780;9.606;2022-07-09T05:48:20;15.80;99.90
19930;DHT22;10127;47.780;9.606;2022-07-09T05:50:46;15.70;99.90
19930;DHT22;10127;47.780;9.606;2022-07-09T05:53:12;15.70;99.90
19930;DHT22;10127;47.780;9.606;2022-07-09T05:55:37;15.80;99.90
19930;DHT22;10127;47.780;9.606;2022-07-09T05:58:03;16.00;99.90
19930;DHT22;10127;47.780;9.606;2022-07-09T06:00:28;15.80;99.90
19930;DHT22;10127;47.780;9.606;2022-07-09T06:02:54;16.00;99.90
19930;DHT22;10127;47.780;9.606;2022-07-09T06:05:19;16.00;99.90
19930;DHT22;10127;47.780;9.606;2022-07-09T06:07:46;16.00;99.90
19930;DHT22;10127;47.780;9.606;2022-07-09T06:10:12;16.00;99.90
19930;DHT22;10127;47.780;9.606;2022-07-09T06:12:39;16.00;99.90
19930;DHT22;10127;47.780;9.606;2022-07-09T06:15:06;16.10;99.90
19930;DHT22;10127;47.780;9.606;2022-07-09T06:17:32;16.30;99.90
19930;DHT22;10127;47.780;9.606;2022-07-09T06:19:57;16.20;99.90
19930;DHT22;10127;47.780;9.606;2022-07-09T06:22:23;16.20;99.90
19930;DHT22;10127;47.780;9.606;2022-07-09T06:24:48;16.20;99.90
19930;DHT22;10127;47.780;9.606;2022-07-09T06:27:14;16.20;99.90
19930;DHT22;10127;47.780;9.606;2022-07-09T06:29:39;16.40;99.90
19930;DHT22;10127;47.780;9.606;2022-07-09T06:32:05;16.60;99.90
19930;DHT22;10127;47.780;9.606;2022-07-09T06:34:31;16.60;99.90
19930;DHT22;10127;47.780;9.606;2022-07-09T06:36:57;16.70;99.90
19930;DHT22;10127;47.780;9.606;2022-07-09T06:39:22;16.90;99.90
19930;DHT22;10127;47.780;9.606;2022-07-09T06:42:07;17.00;99.60
19930;DHT22;10127;47.780;9.606;2022-07-09T06:44:35;16.90;99.50
19930;DHT22;10127;47.780;9.606;2022-07-09T06:47:01;16.90;99.50
19930;DHT22;10127;47.780;9.606;2022-07-09T06:49:27;16.90;99.60
19930;DHT22;10127;47.780;9.606;2022-07-09T06:51:53;17.00;99.60
19930;DHT22;10127;47.780;9.606;2022-07-09T06:54:19;17.00;99.50
19930;DHT22;10127;47.780;9.606;2022-07-09T06:56:44;17.20;99.30
19930;DHT22;10127;47.780;9.606;2022-07-09T06:59:10;17.40;99.00
19930;DHT22;10127;47.780;9.606;2022-07-09T07:01:35;17.40;98.40
19930;DHT22;10127;47.780;9.606;2022-07-09T07:04:01;17.40;98.20
19930;DHT22;10127;47.780;9.606;2022-07-09T07:06:26;17.60;97.70
19930;DHT22;10127;47.780;9.606;2022-07-09T07:08:52;17.70;98.00
19930;DHT22;10127;47.780;9.606;2022-07-09T07:11:18;17.80;97.80
19930;DHT22;10127;47.780;9.606;2022-07-09T07:13:43;17.90;97.60
19930;DHT22;10127;47.780;9.606;2022-07-09T07:16:09;18.10;97.20
19930;DHT22;10127;47.780;9.606;2022-07-09T07:18:35;18.10;97.20
19930;DHT22;10127;47.780;9.606;2022-07-09T07:21:00;18.30;97.10
19930;DHT22;10127;47.780;9.606;2022-07-09T07:23:26;18.30;96.90
19930;DHT22;10127;47.780;9.606;2022-07-09T07:25:51;18.30;96.80
19930;DHT22;10127;47.780;9.606;2022-07-09T07:28:17;18.40;96.70
19930;DHT22;10127;47.780;9.606;2022-07-09T07:30:42;18.40;96.80
19930;DHT22;10127;47.780;9.606;2022-07-09T07:33:08;18.50;96.50
19930;DHT22;10127;47.780;9.606;2022-07-09T07:35:34;18.50;95.80
19930;DHT22;10127;47.780;9.606;2022-07-09T07:38:00;18.50;95.80
19930;DHT22;10127;47.780;9.606;2022-07-09T07:40:25;18.60;95.70
19930;DHT22;10127;47.780;9.606;2022-07-09T07:42:51;18.70;96.00
19930;DHT22;10127;47.780;9.606;2022-07-09T07:45:17;18.80;95.60
19930;DHT22;10127;47.780;9.606;2022-07-09T07:47:42;18.80;95.50
19930;DHT22;10127;47.780;9.606;2022-07-09T07:50:08;18.90;95.60
19930;DHT22;10127;47.780;9.606;2022-07-09T07:52:34;19.00;95.50
19930;DHT22;10127;47.780;9.606;2022-07-09T07:54:59;19.10;95.20
19930;DHT22;10127;47.780;9.606;2022-07-09T07:57:25;19.20;94.50
19930;DHT22;10127;47.780;9.606;2022-07-09T07:59:50;19.30;94.20
19930;DHT22;10127;47.780;9.606;2022-07-09T08:02:17;19.40;93.90
19930;DHT22;10127;47.780;9.606;2022-07-09T08:04:43;19.40;93.40
19930;DHT22;10127;47.780;9.606;2022-07-09T08:07:08;19.50;93.40
19930;DHT22;10127;47.780;9.606;2022-07-09T08:09:34;19.60;92.20
19930;DHT22;10127;47.780;9.606;2022-07-09T08:12:02;19.60;92.10
19930;DHT22;10127;47.780;9.606;2022-07-09T08:14:28;19.70;92.30
19930;DHT22;10127;47.780;9.606;2022-07-09T08:16:54;19.70;92.40
19930;DHT22;10127;47.780;9.606;2022-07-09T08:19:20;19.70;92.10
19930;DHT22;10127;47.780;9.606;2022-07-09T08:21:45;19.80;92.20
19930;DHT22;10127;47.780;9.606;2022-07-09T08:24:11;19.90;92.10
19930;DHT22;10127;47.780;9.606;2022-07-09T08:26:36;19.90;91.70
19930;DHT22;10127;47.780;9.606;2022-07-09T08:29:02;20.00;91.70
19930;DHT22;10127;47.780;9.606;2022-07-09T08:31:28;20.10;91.80
19930;DHT22;10127;47.780;9.606;2022-07-09T08:33:53;20.10;91.10
19930;DHT22;10127;47.780;9.606;2022-07-09T08:36:20;20.20;91.10
19930;DHT22;10127;47.780;9.606;2022-07-09T08:38:46;20.30;91.30
19930;DHT22;10127;47.780;9.606;2022-07-09T08:41:12;20.40;91.20
19930;DHT22;10127;47.780;9.606;2022-07-09T08:43:38;20.30;91.10
19930;DHT22;10127;47.780;9.606;2022-07-09T08:46:05;20.30;91.20
19930;DHT22;10127;47.780;9.606;2022-07-09T08:48:35;20.40;91.20
19930;DHT22;10127;47.780;9.606;2022-07-09T08:51:01;20.50;91.20
19930;DHT22;10127;47.780;9.606;2022-07-09T08:53:28;20.50;90.80
19930;DHT22;10127;47.780;9.606;2022-07-09T08:55:55;20.50;90.80
19930;DHT22;10127;47.780;9.606;2022-07-09T08:58:21;20.60;90.50
19930;DHT22;10127;47.780;9.606;2022-07-09T09:00:48;20.60;90.40
19930;DHT22;10127;47.780;9.606;2022-07-09T09:03:13;20.50;90.20
19930;DHT22;10127;47.780;9.606;2022-07-09T09:05:39;20.60;90.50
19930;DHT22;10127;47.780;9.606;2022-07-09T09:08:19;20.70;90.40
19930;DHT22;10127;47.780;9.606;2022-07-09T09:10:46;20.80;90.00
19930;DHT22;10127;47.780;9.606;2022-07-09T09:13:14;20.80;89.60
19930;DHT22;10127;47.780;9.606;2022-07-09T09:15:41;20.80;89.10
19930;DHT22;10127;47.780;9.606;2022-07-09T09:18:06;20.90;89.20
19930;DHT22;10127;47.780;9.606;2022-07-09T09:20:32;21.00;89.20
19930;DHT22;10127;47.780;9.606;2022-07-09T09:22:57;21.10;88.90
19930;DHT22;10127;47.780;9.606;2022-07-09T09:25:28;21.20;89.20
19930;DHT22;10127;47.780;9.606;2022-07-09T09:27:56;21.10;88.50
19930;DHT22;10127;47.780;9.606;2022-07-09T09:30:23;21.10;88.50
19930;DHT22;10127;47.780;9.606;2022-07-09T09:33:03;21.20;88.90
19930;DHT22;10127;47.780;9.606;2022-07-09T09:35:33;21.20;89.70
19930;DHT22;10127;47.780;9.606;2022-07-09T09:37:59;21.20;89.00
19930;DHT22;10127;47.780;9.606;2022-07-09T09:40:25;21.20;89.10
19930;DHT22;10127;47.780;9.606;2022-07-09T09:42:52;21.20;89.00
19930;DHT22;10127;47.780;9.606;2022-07-09T09:45:23;21.20;88.60
19930;DHT22;10127;47.780;9.606;2022-07-09T09:47:50;21.20;88.80
19930;DHT22;10127;47.780;9.606;2022-07-09T09:50:18;21.30;87.20
19930;DHT22;10127;47.780;9.606;2022-07-09T09:52:46;21.30;86.30
19930;DHT22;10127;47.780;9.606;2022-07-09T09:55:13;21.30;85.90
19930;DHT22;10127;47.780;9.606;2022-07-09T09:57:39;21.40;87.60
19930;DHT22;10127;47.780;9.606;2022-07-09T10:00:06;21.40;87.50
19930;DHT22;10127;47.780;9.606;2022-07-09T10:02:32;21.40;88.50
19930;DHT22;10127;47.780;9.606;2022-07-09T10:04:59;21.40;87.60
19930;DHT22;10127;47.780;9.606;2022-07-09T10:07:25;21.40;87.90
19930;DHT22;10127;47.780;9.606;2022-07-09T10:09:59;21.40;87.20
19930;DHT22;10127;47.780;9.606;2022-07-09T10:12:29;21.40;87.70
19930;DHT22;10127;47.780;9.606;2022-07-09T10:14:55;21.40;86.90
19930;DHT22;10127;47.780;9.606;2022-07-09T10:17:23;21.50;86.80
19930;DHT22;10127;47.780;9.606;2022-07-09T10:20:02;21.60;87.40
19930;DHT22;10127;47.780;9.606;2022-07-09T10:25:06;21.70;85.80
19930;DHT22;10127;47.780;9.606;2022-07-09T10:27:46;21.60;86.10
19930;DHT22;10127;47.780;9.606;2022-07-09T10:30:27;21.60;85.00
19930;DHT22;10127;47.780;9.606;2022-07-09T10:33:19;21.50;85.20
19930;DHT22;10127;47.780;9.606;2022-07-09T10:35:50;21.60;85.90
19930;DHT22;10127;47.780;9.606;2022-07-09T10:38:19;21.70;84.10
19930;DHT22;10127;47.780;9.606;2022-07-09T10:40:47;21.80;84.10
19930;DHT22;10127;47.780;9.606;2022-07-09T10:43:13;22.00;83.30
19930;DHT22;10127;47.780;9.606;2022-07-09T10:48:06;22.20;81.30
19930;DHT22;10127;47.780;9.606;2022-07-09T10:50:35;22.20;83.20
19930;DHT22;10127;47.780;9.606;2022-07-09T10:53:02;22.10;82.60
19930;DHT22;10127;47.780;9.606;2022-07-09T10:55:29;21.90;82.50
19930;DHT22;10127;47.780;9.606;2022-07-09T10:57:55;21.80;82.70
19930;DHT22;10127;47.780;9.606;2022-07-09T11:00:28;21.80;83.30
19930;DHT22;10127;47.780;9.606;2022-07-09T11:05:21;22.00;83.50
19930;DHT22;10127;47.780;9.606;2022-07-09T11:07:55;22.20;83.10
19930;DHT22;10127;47.780;9.606;2022-07-09T11:10:21;22.30;81.90
19930;DHT22;10127;47.780;9.606;2022-07-09T11:12:50;22.40;81.90
19930;DHT22;10127;47.780;9.606;2022-07-09T11:15:19;22.60;81.40
19930;DHT22;10127;47.780;9.606;2022-07-09T11:17:54;22.80;81.10
19930;DHT22;10127;47.780;9.606;2022-07-09T11:20:20;22.80;79.80
19930;DHT22;10127;47.780;9.606;2022-07-09T11:22:47;22.60;80.60
19930;DHT22;10127;47.780;9.606;2022-07-09T11:25:14;22.60;80.80
19930;DHT22;10127;47.780;9.606;2022-07-09T11:27:40;22.70;79.40
19930;DHT22;10127;47.780;9.606;2022-07-09T11:30:06;22.70;80.10
19930;DHT22;10127;47.780;9.606;2022-07-09T11:32:32;22.60;79.60
19930;DHT22;10127;47.780;9.606;2022-07-09T11:34:58;22.70;76.60
19930;DHT22;10127;47.780;9.606;2022-07-09T11:37:24;22.70;76.60
19930;DHT22;10127;47.780;9.606;2022-07-09T11:39:53;22.70;76.80
19930;DHT22;10127;47.780;9.606;2022-07-09T11:42:19;22.70;77.10
19930;DHT22;10127;47.780;9.606;2022-07-09T11:44:56;22.80;77.80
19930;DHT22;10127;47.780;9.606;2022-07-09T11:47:35;22.90;77.80
19930;DHT22;10127;47.780;9.606;2022-07-09T11:50:19;23.20;76.90
19930;DHT22;10127;47.780;9.606;2022-07-09T11:52:49;23.60;76.50
19930;DHT22;10127;47.780;9.606;2022-07-09T11:55:19;23.80;76.50
19930;DHT22;10127;47.780;9.606;2022-07-09T11:57:53;23.80;76.20
19930;DHT22;10127;47.780;9.606;2022-07-09T12:00:27;23.90;77.00
19930;DHT22;10127;47.780;9.606;2022-07-09T12:02:54;23.90;75.30
19930;DHT22;10127;47.780;9.606;2022-07-09T12:07:54;23.70;75.70
19930;DHT22;10127;47.780;9.606;2022-07-09T12:10:32;23.70;75.60
19930;DHT22;10127;47.780;9.606;2022-07-09T12:12:59;23.70;75.80
19930;DHT22;10127;47.780;9.606;2022-07-09T12:15:26;23.80;75.90
19930;DHT22;10127;47.780;9.606;2022-07-09T12:17:53;23.70;75.60
19930;DHT22;10127;47.780;9.606;2022-07-09T12:20:20;23.60;75.50
19930;DHT22;10127;47.780;9.606;2022-07-09T12:22:46;23.70;75.20
19930;DHT22;10127;47.780;9.606;2022-07-09T12:25:12;23.80;75.40
19930;DHT22;10127;47.780;9.606;2022-07-09T12:27:39;24.00;74.50
19930;DHT22;10127;47.780;9.606;2022-07-09T12:30:05;24.00;74.40
19930;DHT22;10127;47.780;9.606;2022-07-09T12:32:30;24.30;73.80
19930;DHT22;10127;47.780;9.606;2022-07-09T12:34:56;24.40;73.30
19930;DHT22;10127;47.780;9.606;2022-07-09T12:37:21;24.50;72.90
19930;DHT22;10127;47.780;9.606;2022-07-09T12:39:47;24.60;73.00
19930;DHT22;10127;47.780;9.606;2022-07-09T12:42:14;24.80;72.60
19930;DHT22;10127;47.780;9.606;2022-07-09T12:44:40;24.80;72.40
19930;DHT22;10127;47.780;9.606;2022-07-09T12:47:06;24.90;72.70
19930;DHT22;10127;47.780;9.606;2022-07-09T12:49:32;24.90;72.20
19930;DHT22;10127;47.780;9.606;2022-07-09T12:51:57;24.70;72.70
19930;DHT22;10127;47.780;9.606;2022-07-09T12:54:23;24.60;72.70
19930;DHT22;10127;47.780;9.606;2022-07-09T12:56:49;24.60;72.20
19930;DHT22;10127;47.780;9.606;2022-07-09T12:59:16;24.60;72.80
19930;DHT22;10127;47.780;9.606;2022-07-09T13:01:43;24.40;73.00
19930;DHT22;10127;47.780;9.606;2022-07-09T13:04:09;24.30;72.60
19930;DHT22;10127;47.780;9.606;2022-07-09T13:06:34;24.30;73.70
19930;DHT22;10127;47.780;9.606;2022-07-09T13:09:05;24.50;73.00
19930;DHT22;10127;47.780;9.606;2022-07-09T13:11:31;24.70;71.90
19930;DHT22;10127;47.780;9.606;2022-07-09T13:13:57;24.90;72.10
19930;DHT22;10127;47.780;9.606;2022-07-09T13:16:23;25.00;71.10
19930;DHT22;10127;47.780;9.606;2022-07-09T13:18:49;25.10;71.50
19930;DHT22;10127;47.780;9.606;2022-07-09T13:21:19;25.30;71.30
19930;DHT22;10127;47.780;9.606;2022-07-09T13:23:46;25.20;71.50
19930;DHT22;10127;47.780;9.606;2022-07-09T13:26:12;25.30;71.10
19930;DHT22;10127;47.780;9.606;2022-07-09T13:28:38;25.10;71.00
19930;DHT22;10127;47.780;9.606;2022-07-09T13:31:04;25.00;71.40
19930;DHT22;10127;47.780;9.606;2022-07-09T13:33:31;24.90;71.90
19930;DHT22;10127;47.780;9.606;2022-07-09T13:35:57;24.80;69.80
19930;DHT22;10127;47.780;9.606;2022-07-09T13:38:24;24.80;69.40
19930;DHT22;10127;47.780;9.606;2022-07-09T13:40:49;24.90;69.10
19930;DHT22;10127;47.780;9.606;2022-07-09T13:43:15;24.80;69.70
19930;DHT22;10127;47.780;9.606;2022-07-09T13:45:41;24.70;70.30
19930;DHT22;10127;47.780;9.606;2022-07-09T13:48:06;24.80;70.30
19930;DHT22;10127;47.780;9.606;2022-07-09T13:50:32;24.80;70.50
19930;DHT22;10127;47.780;9.606;2022-07-09T13:52:57;24.80;71.10
19930;DHT22;10127;47.780;9.606;2022-07-09T13:55:23;24.90;70.90
19930;DHT22;10127;47.780;9.606;2022-07-09T13:57:48;25.30;71.40
19930;DHT22;10127;47.780;9.606;2022-07-09T14:00:14;25.70;70.90
19930;DHT22;10127;47.780;9.606;2022-07-09T14:02:40;25.70;69.70
19930;DHT22;10127;47.780;9.606;2022-07-09T14:05:05;25.80;69.00
19930;DHT22;10127;47.780;9.606;2022-07-09T14:07:31;25.80;68.90
19930;DHT22;10127;47.780;9.606;2022-07-09T14:09:57;25.70;69.30
19930;DHT22;10127;47.780;9.606;2022-07-09T14:12:23;25.80;69.00
19930;DHT22;10127;47.780;9.606;2022-07-09T14:14:52;26.00;68.80
19930;DHT22;10127;47.780;9.606;2022-07-09T14:17:18;25.90;68.20
19930;DHT22;10127;47.780;9.606;2022-07-09T14:19:43;26.00;68.60
19930;DHT22;10127;47.780;9.606;2022-07-09T14:22:09;25.90;68.40
19930;DHT22;10127;47.780;9.606;2022-07-09T14:24:35;25.90;68.60
19930;DHT22;10127;47.780;9.606;2022-07-09T14:27:01;26.20;68.60
19930;DHT22;10127;47.780;9.606;2022-07-09T14:29:27;26.70;67.60
19930;DHT22;10127;47.780;9.606;2022-07-09T14:31:52;27.00;66.40
19930;DHT22;10127;47.780;9.606;2022-07-09T14:34:18;26.90;66.40
19930;DHT22;10127;47.780;9.606;2022-07-09T14:36:44;27.00;66.60
19930;DHT22;10127;47.780;9.606;2022-07-09T14:39:10;27.60;65.50
19930;DHT22;10127;47.780;9.606;2022-07-09T14:41:36;27.80;65.10
19930;DHT22;10127;47.780;9.606;2022-07-09T14:44:03;28.20;63.90
19930;DHT22;10127;47.780;9.606;2022-07-09T14:46:28;28.40;63.40
19930;DHT22;10127;47.780;9.606;2022-07-09T14:48:54;28.50;62.80
19930;DHT22;10127;47.780;9.606;2022-07-09T14:51:20;28.60;62.00
19930;DHT22;10127;47.780;9.606;2022-07-09T14:53:45;28.90;61.50
19930;DHT22;10127;47.780;9.606;2022-07-09T14:56:11;28.80;61.40
19930;DHT22;10127;47.780;9.606;2022-07-09T14:58:37;29.00;61.30
19930;DHT22;10127;47.780;9.606;2022-07-09T15:01:03;29.30;60.90
19930;DHT22;10127;47.780;9.606;2022-07-09T15:03:29;29.50;60.00
19930;DHT22;10127;47.780;9.606;2022-07-09T15:05:55;29.20;60.90
19930;DHT22;10127;47.780;9.606;2022-07-09T15:08:21;29.10;60.90
19930;DHT22;10127;47.780;9.606;2022-07-09T15:10:47;28.80;61.50
19930;DHT22;10127;47.780;9.606;2022-07-09T15:13:13;28.80;62.00
19930;DHT22;10127;47.780;9.606;2022-07-09T15:15:38;28.40;62.60
19930;DHT22;10127;47.780;9.606;2022-07-09T15:18:04;28.10;62.40
19930;DHT22;10127;47.780;9.606;2022-07-09T15:20:30;27.90;63.00
19930;DHT22;10127;47.780;9.606;2022-07-09T15:22:57;28.20;62.50
19930;DHT22;10127;47.780;9.606;2022-07-09T15:25:24;28.20;62.80
19930;DHT22;10127;47.780;9.606;2022-07-09T15:27:49;28.40;62.80
19930;DHT22;10127;47.780;9.606;2022-07-09T15:30:15;28.70;62.30
19930;DHT22;10127;47.780;9.606;2022-07-09T15:32:41;28.90;61.80
19930;DHT22;10127;47.780;9.606;2022-07-09T15:35:07;28.70;61.10
19930;DHT22;10127;47.780;9.606;2022-07-09T15:37:34;28.50;61.80
19930;DHT22;10127;47.780;9.606;2022-07-09T15:39:59;28.30;62.20
19930;DHT22;10127;47.780;9.606;2022-07-09T15:42:25;29.20;61.50
19930;DHT22;10127;47.780;9.606;2022-07-09T15:44:50;34.40;56.10
19930;DHT22;10127;47.780;9.606;2022-07-09T15:47:16;37.70;50.80
19930;DHT22;10127;47.780;9.606;2022-07-09T15:49:42;35.40;50.20
19930;DHT22;10127;47.780;9.606;2022-07-09T15:52:08;33.10;53.10
19930;DHT22;10127;47.780;9.606;2022-07-09T15:54:33;33.30;55.10
19930;DHT22;10127;47.780;9.606;2022-07-09T15:56:59;34.10;52.70